createdAt,value
2019-04-06T00:00:58.429Z,6.22
2019-04-06T00:03:27.327Z,5.90
2019-04-06T00:05:58.069Z,5.17
2019-04-06T00:10:55.648Z,5.80
2019-04-06T00:13:25.279Z,4.72
2019-04-06T00:15:54.669Z,4.75
2019-04-06T00:18:23.916Z,4.45
2019-04-06T00:20:53.069Z,5.00
2019-04-06T00:23:22.268Z,4.10
2019-04-06T00:25:51.388Z,3.90
2019-04-06T00:28:20.838Z,3.80
2019-04-06T00:30:57.689Z,4.33
2019-04-06T00:33:28.088Z,4.15
2019-04-06T00:35:57.151Z,4.20
2019-04-06T00:38:26.529Z,4.00
2019-04-06T00:40:56.549Z,3.80
2019-04-06T00:43:25.628Z,4.22
2019-04-06T00:45:54.471Z,4.70
2019-04-06T00:48:23.448Z,3.77
2019-04-06T00:50:52.428Z,4.00
2019-04-06T00:53:21.368Z,3.83
2019-04-06T00:55:55.517Z,4.08
2019-04-06T00:58:21.148Z,4.22
2019-04-06T01:00:50.129Z,4.15
2019-04-06T01:03:19.008Z,3.77
2019-04-06T01:05:47.788Z,7.50
2019-04-06T01:08:16.767Z,6.17
2019-04-06T01:10:46.409Z,7.62
2019-04-06T01:13:15.277Z,6.00
2019-04-06T01:15:44.328Z,4.85
2019-04-06T01:18:13.268Z,4.22
2019-04-06T01:20:42.430Z,3.77
2019-04-06T01:23:11.809Z,4.42
2019-04-06T01:25:41.608Z,3.75
2019-04-06T01:28:10.949Z,5.67
2019-04-06T01:30:40.929Z,11.88
2019-04-06T01:33:10.064Z,3.72
2019-04-06T01:35:40.188Z,12.18
2019-04-06T01:38:09.209Z,16.75
2019-04-06T01:40:38.548Z,9.53
2019-04-06T01:43:07.634Z,8.13
2019-04-06T01:45:36.668Z,10.68
2019-04-06T01:48:06.228Z,7.03
2019-04-06T01:50:35.890Z,9.95
2019-04-06T01:53:04.688Z,5.70
2019-04-06T01:55:33.629Z,9.95
2019-04-06T01:58:02.408Z,7.33
2019-04-06T02:00:31.368Z,11.80
2019-04-06T02:03:00.449Z,9.33
2019-04-06T02:05:29.409Z,9.15
2019-04-06T02:07:58.449Z,16.95
2019-04-06T02:10:27.608Z,10.25
2019-04-06T02:12:57.553Z,6.53
2019-04-06T02:15:26.349Z,10.70
2019-04-06T02:17:55.448Z,14.85
2019-04-06T02:20:24.390Z,7.83
2019-04-06T02:22:53.236Z,6.70
2019-04-06T02:25:22.668Z,7.42
2019-04-06T02:27:52.849Z,6.75
2019-04-06T02:30:23.692Z,8.63
2019-04-06T02:33:10.770Z,6.55
2019-04-06T02:35:57.870Z,6.70
2019-04-06T02:38:30.911Z,6.58
2019-04-06T02:41:13.069Z,7.45
2019-04-06T02:43:42.810Z,6.42
2019-04-06T02:46:11.750Z,7.08
2019-04-06T02:48:40.668Z,7.80
2019-04-06T02:51:09.689Z,7.22
2019-04-06T02:53:38.591Z,6.97
2019-04-06T02:56:08.052Z,6.78
2019-04-06T02:58:37.964Z,6.30
2019-04-06T03:01:08.128Z,6.75
2019-04-06T03:03:37.670Z,5.15
2019-04-06T03:06:06.629Z,5.37
2019-04-06T03:08:36.429Z,5.22
2019-04-06T03:11:05.634Z,4.22
2019-04-06T03:13:34.909Z,4.90
2019-04-06T03:16:04.170Z,4.75
2019-04-06T03:18:33.609Z,3.95
2019-04-06T03:21:03.317Z,4.42
2019-04-06T03:23:32.258Z,4.90
2019-04-06T03:26:02.304Z,4.05
2019-04-06T03:28:31.721Z,4.40
2019-04-06T03:31:01.837Z,3.95
2019-04-06T03:33:31.553Z,4.00
2019-04-06T03:36:00.484Z,4.20
2019-04-06T03:38:29.790Z,4.30
2019-04-06T03:40:58.909Z,4.20
2019-04-06T03:43:27.763Z,4.25
2019-04-06T03:45:56.688Z,4.92
2019-04-06T03:48:26.716Z,4.45
2019-04-06T03:50:56.198Z,3.60
2019-04-06T03:53:25.788Z,5.40
2019-04-06T03:55:55.108Z,3.92
2019-04-06T03:58:24.702Z,4.20
2019-04-06T04:00:54.049Z,4.97
2019-04-06T04:03:23.112Z,5.00
2019-04-06T04:05:52.189Z,4.95
2019-04-06T04:08:21.472Z,4.97
2019-04-06T04:10:50.249Z,4.85
2019-04-06T04:13:19.188Z,4.70
2019-04-06T04:15:48.218Z,4.70
2019-04-06T04:18:17.149Z,4.72
2019-04-06T04:20:46.201Z,4.67
2019-04-06T04:23:16.089Z,4.60
2019-04-06T04:25:44.992Z,4.85
2019-04-06T04:28:14.089Z,4.75
2019-04-06T04:30:42.969Z,4.95
2019-04-06T04:33:12.352Z,5.42
2019-04-06T04:35:41.552Z,5.37
2019-04-06T04:38:10.929Z,5.62
2019-04-06T04:40:40.551Z,5.78
2019-04-06T04:43:09.669Z,5.80
2019-04-06T04:45:38.429Z,5.65
2019-04-06T04:48:07.356Z,5.78
2019-04-06T04:50:37.272Z,6.15
2019-04-06T04:53:06.390Z,6.22
2019-04-06T04:55:36.714Z,6.12
2019-04-06T04:58:05.688Z,6.20
2019-04-06T05:00:34.931Z,6.45
2019-04-06T05:03:04.010Z,6.28
2019-04-06T05:05:33.277Z,7.20
2019-04-06T05:08:02.159Z,6.35
2019-04-06T05:10:32.048Z,6.70
2019-04-06T05:13:03.890Z,7.62
2019-04-06T05:15:45.068Z,7.62
2019-04-06T05:18:14.249Z,7.60
2019-04-06T05:20:43.528Z,7.40
2019-04-06T05:23:12.988Z,7.85
2019-04-06T05:25:41.975Z,7.95
2019-04-06T05:28:11.275Z,8.23
2019-04-06T05:30:40.149Z,9.40
2019-04-06T05:33:09.810Z,9.15
2019-04-06T05:35:39.769Z,9.67
2019-04-06T05:38:08.749Z,10.75
2019-04-06T05:40:41.709Z,13.00
2019-04-06T05:43:10.688Z,11.57
2019-04-06T05:45:39.951Z,11.55
2019-04-06T05:48:09.028Z,12.88
2019-04-06T05:50:37.841Z,12.43
2019-04-06T05:53:07.047Z,10.23
2019-04-06T05:55:36.569Z,12.03
2019-04-06T05:58:09.675Z,11.08
2019-04-06T06:00:40.122Z,11.63
2019-04-06T06:03:10.157Z,11.48
2019-04-06T06:05:40.282Z,12.07
2019-04-06T06:10:39.548Z,8.23
2019-04-06T06:13:09.128Z,11.38
2019-04-06T06:15:40.488Z,11.90
2019-04-06T06:18:11.169Z,11.35
2019-04-06T06:23:10.136Z,20.08
2019-04-06T06:25:40.748Z,26.20
2019-04-06T06:28:15.026Z,12.50
2019-04-06T06:30:40.849Z,17.23
2019-04-06T06:33:10.528Z,15.88
2019-04-06T06:35:40.008Z,21.90
2019-04-06T06:38:09.453Z,13.40
2019-04-06T06:40:38.888Z,12.07
2019-04-06T06:43:08.328Z,19.50
2019-04-06T06:45:37.728Z,15.80
2019-04-06T06:48:06.828Z,21.65
2019-04-06T06:50:36.008Z,17.50
2019-04-06T06:53:05.554Z,12.33
2019-04-06T06:55:35.045Z,30.82
2019-04-06T06:58:04.050Z,15.48
2019-04-06T07:00:33.948Z,15.18
2019-04-06T07:03:02.638Z,13.43
2019-04-06T07:05:31.448Z,14.58
2019-04-06T07:08:01.536Z,16.00
2019-04-06T07:10:30.823Z,14.45
2019-04-06T07:12:59.790Z,15.85
2019-04-06T07:15:30.928Z,14.30
2019-04-06T07:18:00.357Z,14.50
2019-04-06T07:20:31.576Z,16.75
2019-04-06T07:23:00.528Z,16.15
2019-04-06T07:25:29.628Z,15.00
2019-04-06T07:27:58.596Z,14.53
2019-04-06T07:30:27.926Z,17.87
2019-04-06T07:32:57.468Z,17.82
2019-04-06T07:35:26.688Z,14.60
2019-04-06T07:37:56.608Z,13.38
2019-04-06T07:40:25.548Z,9.58
2019-04-06T07:42:55.307Z,13.72
2019-04-06T07:45:24.508Z,14.47
2019-04-06T07:47:54.267Z,12.33
2019-04-06T07:50:23.348Z,14.40
2019-04-06T07:52:54.749Z,14.07
2019-04-06T07:55:24.028Z,12.70
2019-04-06T07:57:54.348Z,13.32
2019-04-06T08:00:26.173Z,13.65
2019-04-06T08:02:55.428Z,14.30
2019-04-06T08:05:24.442Z,17.70
2019-04-06T08:07:54.059Z,15.30
2019-04-06T08:10:23.774Z,13.98
2019-04-06T08:12:53.888Z,11.40
2019-04-06T08:15:23.408Z,14.98
2019-04-06T08:17:53.488Z,18.00
2019-04-06T08:20:22.893Z,12.15
2019-04-06T08:22:52.409Z,12.37
2019-04-06T08:25:21.330Z,12.35
2019-04-06T08:27:50.112Z,11.75
2019-04-06T08:30:18.909Z,11.40
2019-04-06T08:32:49.208Z,13.40
2019-04-06T08:35:25.211Z,12.40
2019-04-06T08:37:50.304Z,12.80
2019-04-06T08:40:19.718Z,10.95
2019-04-06T08:42:49.149Z,13.05
2019-04-06T08:45:18.718Z,14.95
2019-04-06T08:47:47.629Z,10.43
2019-04-06T08:50:17.615Z,9.68
2019-04-06T08:52:46.890Z,9.38
2019-04-06T08:55:15.808Z,24.85
2019-04-06T08:57:44.988Z,11.55
2019-04-06T09:00:14.047Z,9.40
2019-04-06T09:02:43.088Z,9.45
2019-04-06T09:05:12.570Z,9.45
2019-04-06T09:07:42.373Z,10.90
2019-04-06T09:10:12.415Z,8.43
2019-04-06T09:12:41.628Z,10.25
2019-04-06T09:15:10.528Z,11.03
2019-04-06T09:17:40.442Z,9.28
2019-04-06T09:20:09.857Z,10.00
2019-04-06T09:22:40.208Z,9.53
2019-04-06T09:25:10.282Z,8.70
2019-04-06T09:27:40.088Z,7.40
2019-04-06T09:30:09.196Z,8.38
2019-04-06T09:32:38.387Z,9.23
2019-04-06T09:35:07.348Z,7.70
2019-04-06T09:37:37.348Z,9.30
2019-04-06T09:40:07.588Z,7.75
2019-04-06T09:42:37.205Z,8.55
2019-04-06T09:45:26.048Z,8.03
2019-04-06T09:48:11.848Z,9.53
2019-04-06T09:50:58.688Z,9.58
2019-04-06T09:53:41.451Z,10.88
2019-04-06T09:56:14.768Z,10.63
2019-04-06T09:58:45.372Z,11.20
2019-04-06T10:01:36.932Z,13.48
2019-04-06T10:03:56.888Z,9.55
2019-04-06T10:06:27.921Z,9.55
2019-04-06T10:09:17.408Z,9.35
2019-04-06T10:12:03.433Z,9.33
2019-04-06T10:14:50.109Z,10.08
2019-04-06T10:17:39.429Z,9.83
2019-04-06T10:20:24.288Z,9.70
2019-04-06T10:22:55.330Z,8.68
2019-04-06T10:25:28.929Z,8.23
2019-04-06T10:28:16.289Z,9.18
2019-04-06T10:30:49.828Z,9.10
2019-04-06T10:33:20.348Z,9.03
2019-04-06T10:36:09.732Z,8.23
2019-04-06T10:38:49.308Z,8.13
2019-04-06T10:41:19.710Z,7.78
2019-04-06T10:44:06.768Z,6.42
2019-04-06T10:46:43.296Z,8.95
2019-04-06T10:49:13.948Z,7.42
2019-04-06T10:54:39.408Z,5.03
2019-04-06T10:57:09.986Z,3.80
2019-04-06T10:59:46.268Z,4.28
2019-04-06T11:02:33.590Z,4.62
2019-04-06T11:05:20.711Z,4.97
2019-04-06T11:07:54.287Z,8.15
2019-04-06T11:10:37.049Z,9.00
2019-04-06T11:13:23.868Z,8.75
2019-04-06T11:15:57.351Z,5.80
2019-04-06T11:18:44.000Z,7.85
2019-04-06T11:21:30.490Z,6.85
2019-04-06T11:24:13.428Z,6.35
2019-04-06T11:27:00.353Z,6.65
2019-04-06T11:29:37.849Z,5.80
2019-04-06T11:32:23.648Z,5.97
2019-04-06T11:35:00.208Z,6.22
2019-04-06T11:37:43.477Z,4.70
2019-04-06T11:40:32.922Z,5.58
2019-04-06T11:43:09.969Z,4.15
2019-04-06T11:45:49.648Z,3.95
2019-04-06T11:48:23.615Z,4.67
2019-04-06T11:51:00.488Z,5.00
2019-04-06T11:53:31.168Z,4.37
2019-04-06T11:58:41.079Z,3.92
2019-04-06T12:01:12.390Z,4.58
2019-04-06T12:06:15.707Z,5.65
2019-04-06T12:09:01.128Z,4.90
2019-04-06T12:11:48.294Z,4.70
2019-04-06T12:14:22.175Z,4.62
2019-04-06T12:16:52.767Z,4.60
2019-04-06T12:22:01.894Z,4.78
2019-04-06T12:24:36.148Z,5.03
2019-04-06T12:27:06.628Z,5.97
2019-04-06T12:29:53.114Z,5.37
2019-04-06T12:32:32.502Z,6.12
2019-04-06T12:35:18.128Z,5.78
2019-04-06T12:38:05.208Z,6.33
2019-04-06T12:40:41.830Z,6.47
2019-04-06T12:43:12.568Z,6.12
2019-04-06T12:48:37.227Z,6.45
2019-04-06T12:51:19.908Z,5.47
2019-04-06T12:53:53.328Z,6.87
2019-04-06T12:56:33.442Z,6.42
2019-04-06T12:59:04.368Z,6.78
2019-04-06T13:01:37.517Z,6.62
2019-04-06T13:04:24.708Z,6.90
2019-04-06T13:07:01.687Z,5.95
2019-04-06T13:09:35.149Z,7.42
2019-04-06T13:12:11.831Z,7.42
2019-04-06T13:14:59.768Z,6.95
2019-04-06T13:17:39.667Z,7.83
2019-04-06T13:20:10.910Z,7.43
2019-04-06T13:22:53.648Z,7.53
2019-04-06T13:25:26.848Z,7.78
2019-04-06T13:28:03.008Z,7.85
2019-04-06T13:30:36.188Z,7.15
2019-04-06T13:33:09.788Z,7.30
2019-04-06T13:35:40.508Z,7.53
2019-04-06T13:38:11.876Z,7.75
2019-04-06T13:40:54.688Z,7.60
2019-04-06T13:43:28.048Z,8.10
2019-04-06T13:45:59.295Z,8.18
2019-04-06T13:48:32.709Z,8.10
2019-04-06T13:51:18.508Z,7.67
2019-04-06T13:53:55.488Z,7.42
2019-04-06T13:56:25.948Z,6.90
2019-04-06T13:59:02.385Z,7.25
2019-04-06T14:01:34.105Z,7.62
2019-04-06T14:04:12.205Z,7.45
2019-04-06T14:06:48.928Z,8.60
2019-04-06T14:09:19.763Z,8.10
2019-04-06T14:11:50.928Z,7.72
2019-04-06T14:14:37.944Z,8.18
2019-04-06T14:17:09.699Z,8.65
2019-04-06T14:19:46.249Z,8.38
2019-04-06T14:22:25.768Z,8.98
2019-04-06T14:24:56.348Z,7.87
2019-04-06T14:30:14.886Z,7.72
2019-04-06T14:32:45.710Z,8.25
2019-04-06T14:38:03.774Z,8.33
2019-04-06T14:40:49.273Z,7.53
2019-04-06T14:43:25.608Z,7.67
2019-04-06T14:46:05.830Z,7.92
2019-04-06T14:48:45.362Z,7.70
2019-04-06T14:51:25.348Z,7.53
2019-04-06T14:54:08.071Z,7.70
2019-04-06T14:56:41.629Z,8.80
2019-04-06T14:59:12.327Z,8.78
2019-04-06T15:01:59.651Z,7.87
2019-04-06T15:04:43.413Z,8.00
2019-04-06T15:07:31.504Z,8.33
2019-04-06T15:10:20.584Z,8.93
2019-04-06T15:12:52.117Z,8.98
2019-04-06T15:15:31.808Z,8.98
2019-04-06T15:18:09.223Z,8.80
2019-04-06T15:20:46.431Z,8.98
2019-04-06T15:23:16.869Z,8.83
2019-04-06T15:25:50.388Z,9.30
2019-04-06T15:28:21.148Z,8.53
2019-04-06T15:31:04.408Z,8.05
2019-04-06T15:33:37.950Z,8.55
2019-04-06T15:36:20.914Z,8.88
2019-04-06T15:38:52.152Z,8.60
2019-04-06T15:41:39.194Z,8.25
2019-04-06T15:44:10.053Z,9.78
2019-04-06T15:46:43.754Z,8.18
2019-04-06T15:49:17.118Z,8.65
2019-04-06T15:51:54.138Z,8.90
2019-04-06T15:54:30.709Z,9.05
2019-04-06T15:57:03.811Z,9.58
2019-04-06T15:59:50.422Z,9.10
2019-04-06T16:02:21.728Z,8.53
2019-04-06T16:05:09.052Z,9.18
2019-04-06T16:07:45.468Z,9.28
2019-04-06T16:10:32.488Z,8.25
2019-04-06T16:13:18.167Z,8.63
2019-04-06T16:15:48.848Z,8.60
2019-04-06T16:21:22.148Z,8.40
2019-04-06T16:24:04.925Z,9.55
2019-04-06T16:26:41.269Z,9.08
2019-04-06T16:29:11.828Z,9.58
2019-04-06T16:31:47.987Z,9.25
2019-04-06T16:34:30.043Z,9.85
2019-04-06T16:37:06.829Z,9.18
2019-04-06T16:39:40.508Z,9.38
2019-04-06T16:42:11.479Z,9.23
2019-04-06T16:44:42.068Z,9.00
2019-04-06T16:47:18.530Z,9.75
2019-04-06T16:49:50.289Z,9.08
2019-04-06T16:52:32.619Z,10.23
2019-04-06T16:55:19.709Z,9.85
2019-04-06T16:57:59.246Z,9.85
2019-04-06T17:00:46.268Z,9.40
2019-04-06T17:03:16.910Z,10.03
2019-04-06T17:08:33.709Z,9.65
2019-04-06T17:11:07.311Z,10.20
2019-04-06T17:13:54.157Z,10.43
2019-04-06T17:16:24.849Z,10.38
2019-04-06T17:21:50.549Z,9.73
2019-04-06T17:24:33.609Z,10.90
2019-04-06T17:27:10.570Z,11.03
2019-04-06T17:29:42.028Z,10.98
2019-04-06T17:32:18.428Z,10.82
2019-04-06T17:34:54.287Z,9.83
2019-04-06T17:37:35.769Z,10.30
2019-04-06T17:40:14.156Z,9.80
2019-04-06T17:42:59.750Z,10.90
2019-04-06T17:45:46.335Z,10.18
2019-04-06T17:48:17.488Z,10.53
2019-04-06T17:51:03.221Z,10.03
2019-04-06T17:53:42.722Z,10.80
2019-04-06T17:56:16.876Z,8.80
2019-04-06T17:58:47.752Z,11.20
2019-04-06T18:01:34.244Z,10.63
2019-04-06T18:04:10.931Z,10.63
2019-04-06T18:06:47.051Z,10.82
2019-04-06T18:09:34.361Z,11.33
2019-04-06T18:12:08.987Z,10.58
2019-04-06T18:14:38.551Z,10.60
2019-04-06T18:17:07.660Z,11.12
2019-04-06T18:19:37.091Z,10.55
2019-04-06T18:22:06.577Z,10.90
2019-04-06T18:24:37.381Z,11.10
2019-04-06T18:27:06.589Z,12.25
2019-04-06T18:29:35.303Z,11.05
2019-04-06T18:32:05.954Z,10.18
2019-04-06T18:34:35.150Z,9.53
2019-04-06T18:37:05.733Z,10.25
2019-04-06T18:39:34.725Z,10.43
2019-04-06T18:42:03.835Z,10.98
2019-04-06T18:44:33.077Z,10.43
2019-04-06T18:47:02.137Z,10.58
2019-04-06T18:49:31.868Z,10.78
2019-04-06T18:52:01.837Z,10.72
2019-04-06T18:54:30.648Z,10.58
2019-04-06T18:57:00.573Z,10.53
2019-04-06T18:59:30.208Z,10.58
2019-04-06T19:01:59.564Z,10.48
2019-04-06T19:04:29.249Z,10.93
2019-04-06T19:06:59.551Z,11.68
2019-04-06T19:09:28.630Z,12.65
2019-04-06T19:11:58.524Z,11.22
2019-04-06T19:14:27.989Z,11.43
2019-04-06T19:16:57.230Z,12.03
2019-04-06T19:19:26.179Z,11.57
2019-04-06T19:21:55.005Z,13.18
2019-04-06T19:24:24.111Z,12.88
2019-04-06T19:26:53.428Z,13.25
2019-04-06T19:29:22.943Z,12.20
2019-04-06T19:31:51.993Z,13.05
2019-04-06T19:34:21.032Z,13.50
2019-04-06T19:36:49.920Z,12.47
2019-04-06T19:39:19.164Z,12.58
2019-04-06T19:41:48.330Z,13.78
2019-04-06T19:44:17.468Z,14.70
2019-04-06T19:46:46.528Z,14.87
2019-04-06T19:49:15.876Z,14.23
2019-04-06T19:51:44.949Z,15.05
2019-04-06T19:54:13.873Z,14.95
2019-04-06T19:56:42.945Z,14.65
2019-04-06T19:59:13.772Z,14.68
2019-04-06T20:01:44.059Z,13.95
2019-04-06T20:04:12.870Z,14.00
2019-04-06T20:06:42.245Z,13.80
2019-04-06T20:09:11.751Z,13.53
2019-04-06T20:11:41.192Z,13.65
2019-04-06T20:14:10.684Z,13.13
2019-04-06T20:16:39.711Z,13.37
2019-04-06T20:19:08.871Z,13.03
2019-04-06T20:21:37.805Z,12.23
2019-04-06T20:24:06.813Z,11.83
2019-04-06T20:26:36.096Z,12.60
2019-04-06T20:29:06.338Z,11.77
2019-04-06T20:31:35.534Z,10.58
2019-04-06T20:34:04.953Z,11.75
2019-04-06T20:36:34.352Z,11.53
2019-04-06T20:39:04.352Z,12.10
2019-04-06T20:41:33.515Z,9.23
2019-04-06T20:44:02.235Z,11.88
2019-04-06T20:46:31.002Z,13.62
2019-04-06T20:49:00.160Z,12.25
2019-04-06T20:51:29.233Z,12.43
2019-04-06T20:53:58.727Z,12.05
2019-04-06T20:56:27.588Z,13.32
2019-04-06T20:58:56.860Z,12.40
2019-04-06T21:01:26.511Z,12.37
2019-04-06T21:04:00.842Z,12.40
2019-04-06T21:06:27.268Z,11.97
2019-04-06T21:08:56.348Z,12.25
2019-04-06T21:11:25.434Z,11.93
2019-04-06T21:13:54.307Z,12.20
2019-04-06T21:16:23.628Z,11.85
2019-04-06T21:18:52.554Z,11.93
2019-04-06T21:21:21.557Z,12.58
2019-04-06T21:23:51.136Z,12.33
2019-04-06T21:26:21.527Z,11.22
2019-04-06T21:28:51.887Z,12.33
2019-04-06T21:31:21.648Z,12.65
2019-04-06T21:33:51.375Z,13.48
2019-04-06T21:36:20.752Z,12.80
2019-04-06T21:38:50.434Z,13.10
2019-04-06T21:41:19.783Z,12.50
2019-04-06T21:43:49.423Z,12.88
2019-04-06T21:46:18.648Z,13.35
2019-04-06T21:48:48.036Z,13.45
2019-04-06T21:51:17.986Z,13.37
2019-04-06T21:53:48.011Z,13.58
2019-04-06T21:56:19.089Z,14.00
2019-04-06T21:58:48.542Z,13.70
2019-04-06T22:01:18.364Z,12.70
2019-04-06T22:03:48.441Z,12.15
2019-04-06T22:06:18.462Z,12.53
2019-04-06T22:08:47.452Z,12.40
2019-04-06T22:11:17.556Z,11.55
2019-04-06T22:13:47.419Z,34.92
2019-04-06T22:16:17.050Z,13.00
2019-04-06T22:18:45.970Z,11.12
2019-04-06T22:21:14.969Z,12.43
2019-04-06T22:23:45.735Z,11.78
2019-04-06T22:26:14.747Z,13.83
2019-04-06T22:28:43.575Z,14.63
2019-04-06T22:31:13.245Z,13.25
2019-04-06T22:33:42.326Z,12.97
2019-04-06T22:36:12.310Z,12.70
2019-04-06T22:38:41.752Z,14.23
2019-04-06T22:41:11.794Z,13.60
2019-04-06T22:43:41.253Z,14.00
2019-04-06T22:46:12.223Z,15.25
2019-04-06T22:48:40.510Z,13.98
2019-04-06T22:51:10.097Z,15.45
2019-04-06T22:53:40.128Z,16.90
2019-04-06T22:56:08.878Z,15.85
2019-04-06T22:58:38.465Z,16.82
2019-04-06T23:01:09.212Z,15.93
2019-04-06T23:03:58.628Z,16.52
2019-04-06T23:06:29.149Z,15.98
2019-04-06T23:08:58.508Z,15.40
2019-04-06T23:11:27.648Z,15.83
2019-04-06T23:13:56.929Z,15.58
2019-04-06T23:16:26.420Z,15.23
2019-04-06T23:18:56.232Z,13.80
2019-04-06T23:21:25.902Z,16.70
2019-04-06T23:23:55.584Z,14.93
2019-04-06T23:26:25.058Z,14.20
2019-04-06T23:28:54.251Z,14.45
2019-04-06T23:31:23.170Z,13.38
2019-04-06T23:33:51.905Z,13.28
2019-04-06T23:36:20.987Z,13.15
2019-04-06T23:38:50.995Z,12.68
2019-04-06T23:41:20.351Z,11.93
2019-04-06T23:43:50.814Z,11.73
2019-04-06T23:46:19.841Z,12.13
2019-04-06T23:48:48.670Z,11.83
2019-04-06T23:51:18.818Z,11.18
2019-04-06T23:53:48.080Z,11.38
2019-04-06T23:56:18.689Z,11.43
2019-04-06T23:58:47.609Z,11.78
